Terminal Aerodrome Forecast
Issued by NWS

Home | Current Version | Previous Version | Text Only | Print | Product List | Glossary On
Versions: 1 2 3 4 5 6 7 8 9 10 11 12 13 14 15 16 17 18 19 20 21 22 23 24 25 26 27 28 29 30 31 32 33 34 35 36 37 38 39 40 41 42 43 44 45 46 47 48 49 50
000
FTUS44 KHGX 291732
TAFIAH
TAF
KIAH 291732Z 2918/3024 27006KT P6SM SCT025 SCT120
      TEMPO 2918/2920 BKN025
     FM300000 33005KT P6SM SCT025 BKN120
     FM300500 36010KT P6SM SCT030 OVC120
     FM301100 03011KT P6SM SCT120 OVC200
     FM301600 05012KT P6SM SCT150 OVC200
     FM302100 08008KT P6SM BKN150=

USA.gov is the U.S. government's official web portal to all federal, state and local government web resources and services.